Ahoskie, NC

04:05 AM EDT af October 20, 2014 (GMT -0400)
Tri County | Change Station
CLOSE
Current Station
Airport
Location: Ahoskie,
Elevation: 69 ft
Nearby Weather Stations

Elev 69 ft 36.30 °N, 77.17 °W | Updated 10 minutes ago

klor
klor
37 °f
Feels Like 37 °f
N
0
vint baytevdik vint from tsofn[ts]

haynt
High -- | Low -- °f
--% Chance of Precip.
Yesterday
High -- | Low -- °f
Precip. -- in
7:19 AM 6:25 PM
Waning Crescent, 12% visible
druk 30.14 in
zeevdikeyt 10.0 mayln
Clouds klor
toypunkt 36 °f
faykhtkeyt 97%
Rainfall 0.00 in
Snow Depth Not available.
UV 0 out of 12
Pollen 2.40 out of 12
Air Quality Not available.
Flu Activity Sporadic
METAR KASJ 200755Z AUTO 00000KT 10SM CLR 03/02 A3014 RMK AO2 T00280023

More Conditions Fewer Conditions

druk 30.14 in
zeevdikeyt 10.0 mayln
Clouds klor
toypunkt 36 °f
faykhtkeyt 97%
Rainfall 0.00 in
Snow Depth Not available.
UV 0 out of 12
Pollen 2.40 out of 12
Air Quality Not available.
Flu Activity Sporadic
METAR KASJ 200755Z AUTO 00000KT 10SM CLR 03/02 A3014 RMK AO2 T00280023

More Conditions Fewer Conditions

10-Day Weather Forecast

Almanac

Astronomy

Oct. 20, 2014 Rise Set
Actual Time 7:19 AM EDT 6:25 PM EDT
Civil Twilight 6:53 AM EDT 6:51 PM EDT
Nautical Twilight 6:23 AM EDT 7:21 PM EDT
Astronomical Twilight 5:53 AM EDT 7:51 PM EDT
Moon 4:11 AM EDT 4:42 PM EDT
Length Of Visible Light 11h 58m
Length of Day
11h 05m
Waning Crescent, 12% of the Moon is Illuminated
haynt
Waning Crescent
Oct 23
New
Oct 30
First Quarter
Nov 6
Full
Nov 14
Last Quarter

Today's Extremes

State Highs State Lows

Community

WunderPhotos

Upload Photos

1,763,316 photos uploaded!

Nearby

Snow Depth

Station Depth Elevation
No new snow has been reported.

Earthquake Activity

City Distance Mag. Time & Date
No recent earthquake activity has been reported nearby.
Minimum magnitude displayed is 2.5.

Coastal Water Temperatures

plats temperatur
Oregon Inlet Marina, NC 69.1 °f
Duck Pier, NC 68.0 °f
Hatteras, NC 66.0 °f
Money Point, VA 68.0 °f
Sewells Point, VA 66.0 °f
Chesapeake Bay Bridge Tunnel, VA 66.9 °f

Nearby Weather Stations